createdAt,value
2019-06-01T00:01:26.271Z,100731.48
2019-06-01T00:03:59.245Z,100695.09
2019-06-01T00:06:32.124Z,100685.24
2019-06-01T00:09:04.607Z,100668.73
2019-06-01T00:11:36.356Z,100602.71
2019-06-01T00:14:09.532Z,100540.65
2019-06-01T00:16:42.005Z,100532.12
2019-06-01T00:19:15.328Z,100510.62
2019-06-01T00:21:54.319Z,100447.15
2019-06-01T00:24:27.676Z,100964.80
2019-06-01T00:26:59.783Z,100675.67
2019-06-01T00:29:31.651Z,100572.02
2019-06-01T00:32:03.691Z,100503.11
2019-06-01T00:34:35.136Z,100430.75
2019-06-01T00:37:07.153Z,100370.16
2019-06-01T00:39:38.556Z,100321.05
2019-06-01T00:42:10.208Z,100299.92
2019-06-01T00:44:42.097Z,100285.08
2019-06-01T00:47:15.931Z,100271.10
2019-06-01T00:49:51.102Z,100235.29
2019-06-01T00:52:23.202Z,100224.67
2019-06-01T00:54:58.311Z,100192.94
2019-06-01T00:57:32.137Z,100179.67
2019-06-01T01:00:04.247Z,100159.44
2019-06-01T01:02:36.813Z,100156.10
2019-06-01T01:05:17.515Z,100144.71
2019-06-01T01:07:50.635Z,100131.98
2019-06-01T01:10:22.457Z,100125.57
2019-06-01T01:13:12.896Z,100127.09
2019-06-01T01:15:45.240Z,100110.52
2019-06-01T01:18:16.735Z,100128.27
2019-06-01T01:20:48.176Z,100132.57
2019-06-01T01:23:19.757Z,100109.41
2019-06-01T01:25:52.547Z,100126.31
2019-06-01T01:28:24.131Z,100113.66
2019-06-01T01:31:08.940Z,100107.68
2019-06-01T01:33:29.131Z,100093.58
2019-06-01T01:36:00.987Z,100104.59
2019-06-01T01:38:32.396Z,100098.69
2019-06-01T01:41:03.787Z,100095.26
2019-06-01T01:43:35.635Z,100084.22
2019-06-01T01:46:07.242Z,100089.56
2019-06-01T01:48:38.737Z,100080.98
2019-06-01T01:51:10.541Z,100062.34
2019-06-01T01:53:41.935Z,100059.14
2019-06-01T01:56:14.325Z,100051.88
2019-06-01T01:58:45.808Z,100029.44
2019-06-01T02:01:22.733Z,99986.75
2019-06-01T02:03:51.774Z,99978.49
2019-06-01T02:06:24.269Z,99957.66
2019-06-01T02:08:55.551Z,100005.02
2019-06-01T02:11:27.001Z,99990.00
2019-06-01T02:13:59.932Z,99949.30
2019-06-01T02:16:32.601Z,99955.67
2019-06-01T02:19:07.123Z,99924.77
2019-06-01T02:21:38.652Z,99912.50
2019-06-01T02:24:10.028Z,99898.38
2019-06-01T02:26:41.441Z,99882.94
2019-06-01T02:29:12.998Z,99871.99
2019-06-01T02:31:44.516Z,99845.11
2019-06-01T02:34:15.912Z,99825.62
2019-06-01T02:36:47.382Z,99777.53
2019-06-01T02:39:19.009Z,99777.16
2019-06-01T02:41:50.721Z,99757.03
2019-06-01T02:44:23.146Z,99717.53
2019-06-01T02:46:55.401Z,99690.88
2019-06-01T02:49:27.329Z,99646.50
2019-06-01T02:51:59.295Z,99539.88
2019-06-01T02:54:31.377Z,99525.64
2019-06-01T02:57:04.109Z,99512.16
2019-06-01T02:59:35.689Z,99509.22
2019-06-01T03:02:12.248Z,99491.06
2019-06-01T03:04:41.084Z,99473.95
2019-06-01T03:07:15.208Z,99481.80
2019-06-01T03:09:49.692Z,99454.63
2019-06-01T03:12:22.545Z,99433.46
2019-06-01T03:14:58.234Z,99421.82
2019-06-01T03:17:32.903Z,99418.23
2019-06-01T03:20:06.289Z,99407.20
2019-06-01T03:22:40.818Z,99398.27
2019-06-01T03:25:13.448Z,99392.27
2019-06-01T03:27:47.420Z,99371.22
2019-06-01T03:30:27.759Z,99357.74
2019-06-01T03:33:01.138Z,99354.14
2019-06-01T03:35:32.809Z,99369.61
2019-06-01T03:38:04.950Z,99356.02
2019-06-01T03:40:36.439Z,99365.48
2019-06-01T03:43:09.356Z,99364.06
2019-06-01T03:45:40.873Z,99376.67
2019-06-01T03:48:12.977Z,99365.19
2019-06-01T03:50:44.522Z,99368.65
2019-06-01T03:53:16.853Z,99371.09
2019-06-01T03:55:48.257Z,99381.31
2019-06-01T03:58:19.653Z,99370.16
2019-06-01T04:00:51.126Z,99382.86
2019-06-01T04:03:22.867Z,99366.39
2019-06-01T04:05:54.287Z,99369.92
2019-06-01T04:08:26.278Z,99359.05
2019-06-01T04:10:57.690Z,99339.69
2019-06-01T04:13:29.076Z,99335.57
2019-06-01T04:16:01.657Z,99333.45
2019-06-01T04:18:33.253Z,99353.11
2019-06-01T04:21:05.914Z,99355.12
2019-06-01T04:23:38.025Z,99328.78
2019-06-01T04:26:10.392Z,99319.88
2019-06-01T04:28:41.972Z,99342.30
2019-06-01T04:31:13.461Z,99340.29
2019-06-01T04:33:44.923Z,99370.77
2019-06-01T04:36:16.435Z,99360.33
2019-06-01T04:38:47.813Z,99363.86
2019-06-01T04:41:19.405Z,99354.08
2019-06-01T04:43:50.896Z,99350.03
2019-06-01T04:46:22.507Z,99350.87
2019-06-01T04:48:54.028Z,99350.94
2019-06-01T04:51:25.522Z,99344.41
2019-06-01T04:53:56.902Z,99339.00
2019-06-01T04:56:28.308Z,99328.89
2019-06-01T04:58:59.878Z,99329.91
2019-06-01T05:01:31.346Z,99328.20
2019-06-01T05:04:02.834Z,99342.40
2019-06-01T05:06:34.215Z,99347.48
2019-06-01T05:09:09.288Z,99350.66
2019-06-01T05:11:43.303Z,99339.16
2019-06-01T05:14:16.563Z,99346.64
2019-06-01T05:16:48.219Z,99360.63
2019-06-01T05:19:19.727Z,99340.73
2019-06-01T05:21:51.072Z,99344.48
2019-06-01T05:24:22.476Z,99354.78
2019-06-01T05:26:54.452Z,99373.38
2019-06-01T05:29:26.111Z,99370.02
2019-06-01T05:31:58.037Z,99378.59
2019-06-01T05:34:29.404Z,99385.78
2019-06-01T05:37:00.744Z,99380.83
2019-06-01T05:39:32.180Z,99372.87
2019-06-01T05:42:04.082Z,99358.77
2019-06-01T05:44:35.852Z,99337.09
2019-06-01T05:47:07.317Z,99352.95
2019-06-01T05:49:38.737Z,99356.06
2019-06-01T05:52:10.476Z,99339.84
2019-06-01T05:54:42.250Z,99339.64
2019-06-01T05:57:14.769Z,99364.61
2019-06-01T06:00:52.487Z,99369.88
2019-06-01T06:03:39.635Z,99334.22
2019-06-01T06:05:57.516Z,99341.59
2019-06-01T06:08:29.103Z,99339.77
2019-06-01T06:11:01.025Z,99416.63
2019-06-01T06:13:32.883Z,99439.31
2019-06-01T06:16:04.412Z,99461.05
2019-06-01T06:18:35.933Z,99544.62
2019-06-01T06:21:07.481Z,99687.80
2019-06-01T06:23:38.999Z,99689.58
2019-06-01T06:26:11.893Z,99798.56
2019-06-01T06:28:43.414Z,99857.04
2019-06-01T06:31:15.328Z,99901.44
2019-06-01T06:33:56.639Z,99860.78
2019-06-01T06:36:26.113Z,99938.11
2019-06-01T06:38:57.657Z,99989.02
2019-06-01T06:41:29.095Z,99949.54
2019-06-01T06:44:00.998Z,99932.34
2019-06-01T06:46:34.378Z,99916.61
2019-06-01T06:49:05.793Z,99908.33
2019-06-01T06:51:37.137Z,99890.14
2019-06-01T06:54:08.643Z,99908.63
2019-06-01T06:56:40.087Z,99970.63
2019-06-01T06:59:11.850Z,99972.05
2019-06-01T07:01:43.680Z,99961.94
2019-06-01T07:04:15.054Z,99935.91
2019-06-01T07:06:48.878Z,99934.56
2019-06-01T07:09:20.287Z,99922.34
2019-06-01T07:11:52.007Z,99941.20
2019-06-01T07:14:23.566Z,99972.13
2019-06-01T07:16:55.890Z,100008.86
2019-06-01T07:19:28.425Z,99986.31
2019-06-01T07:21:59.922Z,99968.59
2019-06-01T07:24:32.149Z,99944.73
2019-06-01T07:27:04.634Z,99965.44
2019-06-01T07:29:36.117Z,99941.11
2019-06-01T07:32:07.664Z,99913.56
2019-06-01T07:34:53.069Z,99924.27
2019-06-01T07:37:24.825Z,99919.06
2019-06-01T07:39:56.865Z,99953.70
2019-06-01T07:42:29.526Z,100013.05
2019-06-01T07:45:01.194Z,100082.52
2019-06-01T07:47:33.988Z,100113.27
2019-06-01T07:50:06.514Z,100171.25
2019-06-01T07:52:40.135Z,100176.48
2019-06-01T07:55:12.157Z,100181.73
2019-06-01T07:57:44.333Z,100186.47
2019-06-01T08:00:17.815Z,100161.73
2019-06-01T08:02:49.249Z,100194.38
2019-06-01T08:05:23.291Z,100203.48
2019-06-01T08:07:54.353Z,100278.36
2019-06-01T08:10:29.624Z,100279.24
2019-06-01T08:13:01.944Z,100292.42
2019-06-01T08:15:33.277Z,100331.23
2019-06-01T08:18:05.187Z,100364.23
2019-06-01T08:20:36.542Z,100311.23
2019-06-01T08:23:07.914Z,100367.95
2019-06-01T08:25:39.440Z,100388.94
2019-06-01T08:28:10.920Z,100379.34
2019-06-01T08:30:42.567Z,100417.56
2019-06-01T08:33:14.101Z,100423.02
2019-06-01T08:35:54.910Z,100361.66
2019-06-01T08:38:27.480Z,100341.41
2019-06-01T08:41:00.043Z,100313.24
2019-06-01T08:43:31.850Z,100330.73
2019-06-01T08:46:03.456Z,100333.18
2019-06-01T08:48:34.947Z,100366.89
2019-06-01T08:51:06.372Z,100391.05
2019-06-01T08:53:40.772Z,100396.92
2019-06-01T08:56:12.949Z,100349.44
2019-06-01T08:58:45.051Z,100333.05
2019-06-01T09:01:19.605Z,100336.54
2019-06-01T09:04:09.572Z,100292.78
2019-06-01T09:06:42.191Z,100303.40
2019-06-01T09:09:14.729Z,100303.70
2019-06-01T09:11:46.169Z,100240.87
2019-06-01T09:14:17.555Z,100205.88
2019-06-01T09:16:49.131Z,100163.83
2019-06-01T09:19:20.556Z,100158.63
2019-06-01T09:21:52.186Z,100154.80
2019-06-01T09:24:23.886Z,100134.83
2019-06-01T09:26:55.805Z,100140.97
2019-06-01T09:29:27.839Z,100113.11
2019-06-01T09:31:59.649Z,100100.41
2019-06-01T09:34:32.442Z,100089.39
2019-06-01T09:37:04.472Z,100094.59
2019-06-01T09:39:37.310Z,100102.91
2019-06-01T09:42:09.347Z,100095.72
2019-06-01T09:44:40.881Z,100118.08
2019-06-01T09:47:12.504Z,100156.36
2019-06-01T09:49:44.355Z,100142.95
2019-06-01T09:52:16.685Z,100143.29
2019-06-01T09:54:48.523Z,100168.86
2019-06-01T09:57:19.864Z,100282.61
2019-06-01T09:59:51.285Z,100305.32
2019-06-01T10:02:22.928Z,100308.55
2019-06-01T10:04:54.766Z,100246.34
2019-06-01T10:07:29.197Z,100219.61
2019-06-01T10:10:00.828Z,100231.81
2019-06-01T10:12:32.541Z,100249.38
2019-06-01T10:15:04.344Z,100206.91
2019-06-01T10:17:38.886Z,100227.11
2019-06-01T10:20:14.433Z,100217.47
2019-06-01T10:22:46.269Z,100205.55
2019-06-01T10:25:21.028Z,100281.48
2019-06-01T10:27:52.642Z,100364.62
2019-06-01T10:30:24.292Z,100383.31
2019-06-01T10:32:56.287Z,100387.00
2019-06-01T10:35:28.123Z,100391.61
2019-06-01T10:38:01.913Z,100421.49
2019-06-01T10:40:33.523Z,100447.89
2019-06-01T10:43:05.603Z,100471.28
2019-06-01T10:45:37.804Z,100485.65
2019-06-01T10:48:09.535Z,100497.21
2019-06-01T10:50:42.997Z,100517.78
2019-06-01T10:53:14.675Z,100575.45
2019-06-01T10:55:47.508Z,100606.95
2019-06-01T10:58:21.415Z,100548.00
2019-06-01T11:00:53.019Z,100554.56
2019-06-01T11:03:25.751Z,100559.84
2019-06-01T11:05:57.436Z,100546.43
2019-06-01T11:08:30.237Z,100554.47
2019-06-01T11:11:03.443Z,100543.26
2019-06-01T11:13:37.087Z,100558.52
2019-06-01T11:16:12.864Z,100602.17
2019-06-01T11:18:45.105Z,100640.24
2019-06-01T11:21:16.595Z,100652.77
2019-06-01T11:23:49.742Z,100678.83
2019-06-01T11:26:23.696Z,100615.63
2019-06-01T11:28:55.573Z,100653.84
2019-06-01T11:31:27.488Z,100681.95
2019-06-01T11:33:59.454Z,100725.86
2019-06-01T11:36:34.237Z,100750.83
2019-06-01T11:39:08.181Z,100753.36
2019-06-01T11:41:40.964Z,100762.22
2019-06-01T11:44:12.415Z,100770.43
2019-06-01T11:46:45.324Z,100794.98
2019-06-01T11:49:21.164Z,100803.69
2019-06-01T11:51:53.340Z,100828.85
2019-06-01T11:54:26.012Z,100834.52
2019-06-01T11:56:58.724Z,100839.69
2019-06-01T11:59:30.812Z,100856.19
2019-06-01T12:02:02.751Z,100865.37
2019-06-01T12:04:34.077Z,100891.08
2019-06-01T12:07:17.150Z,100879.53
2019-06-01T12:09:39.950Z,100912.70
2019-06-01T12:12:10.678Z,100929.06
2019-06-01T12:14:42.664Z,100991.15
2019-06-01T12:17:15.377Z,100958.72
2019-06-01T12:19:47.508Z,100943.50
2019-06-01T12:22:22.267Z,100962.70
2019-06-01T12:24:53.756Z,100952.45
2019-06-01T12:27:25.196Z,100942.88
2019-06-01T12:29:56.853Z,100950.52
2019-06-01T12:32:32.051Z,100981.61
2019-06-01T12:35:03.812Z,100971.05
2019-06-01T12:37:54.905Z,100948.41
2019-06-01T12:40:09.191Z,100971.19
2019-06-01T12:42:41.534Z,100984.45
2019-06-01T12:45:22.710Z,101007.02
2019-06-01T12:47:55.170Z,100971.81
2019-06-01T12:50:25.346Z,101017.45
2019-06-01T12:52:56.825Z,101049.80
2019-06-01T12:55:28.302Z,101029.02
2019-06-01T12:58:00.565Z,101072.62
2019-06-01T13:00:32.004Z,101160.73
2019-06-01T13:03:07.749Z,101206.84
2019-06-01T13:05:36.717Z,101187.74
2019-06-01T13:08:08.035Z,101191.25
2019-06-01T13:10:39.479Z,101251.07
2019-06-01T13:13:11.469Z,101258.58
2019-06-01T13:15:43.719Z,101231.17
2019-06-01T13:18:15.213Z,101274.15
2019-06-01T13:20:47.643Z,101298.88
2019-06-01T13:23:19.599Z,101303.61
2019-06-01T13:25:51.896Z,101347.55
2019-06-01T13:28:37.316Z,101354.63
2019-06-01T13:30:56.418Z,101341.38
2019-06-01T13:33:28.832Z,101254.80
2019-06-01T13:36:00.351Z,101250.16
2019-06-01T13:38:31.923Z,101291.53
2019-06-01T13:41:03.408Z,101342.64
2019-06-01T13:43:35.028Z,101344.00
2019-06-01T13:46:06.882Z,101345.86
2019-06-01T13:48:38.427Z,101294.20
2019-06-01T13:51:09.877Z,101342.27
2019-06-01T13:53:41.280Z,101356.48
2019-06-01T13:56:12.774Z,101353.16
2019-06-01T13:58:44.587Z,101289.12
2019-06-01T14:01:16.151Z,101274.75
2019-06-01T14:03:47.535Z,101283.65
2019-06-01T14:06:19.015Z,101294.33
2019-06-01T14:08:51.109Z,101257.66
2019-06-01T14:11:22.630Z,101240.80
2019-06-01T14:13:54.278Z,101255.80
2019-06-01T14:16:26.367Z,101239.97
2019-06-01T14:18:57.764Z,101205.67
2019-06-01T14:21:29.235Z,101205.16
2019-06-01T14:24:03.135Z,101240.56
2019-06-01T14:26:34.583Z,101232.89
2019-06-01T14:29:07.744Z,101262.77
2019-06-01T14:31:39.131Z,101286.41
2019-06-01T14:34:10.898Z,101308.20
2019-06-01T14:36:43.554Z,101316.98
2019-06-01T14:39:14.907Z,101295.04
2019-06-01T14:41:46.720Z,101316.06
2019-06-01T14:44:19.353Z,101343.20
2019-06-01T14:47:01.336Z,101342.95
2019-06-01T14:49:24.070Z,101354.48
2019-06-01T14:51:57.871Z,101347.86
2019-06-01T14:54:30.764Z,101332.23
2019-06-01T14:57:05.208Z,101331.77
2019-06-01T14:59:38.389Z,101350.90
2019-06-01T15:02:13.553Z,101353.02
2019-06-01T15:04:45.026Z,101366.91
2019-06-01T15:07:16.934Z,101373.00
2019-06-01T15:09:48.698Z,101389.13
2019-06-01T15:12:20.050Z,101369.22
2019-06-01T15:14:51.470Z,101412.55
2019-06-01T15:17:23.253Z,101417.15
2019-06-01T15:19:56.075Z,101429.55
2019-06-01T15:22:27.688Z,101423.95
2019-06-01T15:24:59.252Z,101433.98
2019-06-01T15:27:30.671Z,101437.73
2019-06-01T15:30:03.279Z,101457.85
2019-06-01T15:32:34.974Z,101470.25
2019-06-01T15:35:08.502Z,101481.83
2019-06-01T15:37:39.839Z,101525.68
2019-06-01T15:40:13.377Z,101475.83
2019-06-01T15:42:44.872Z,101461.44
2019-06-01T15:45:16.833Z,101457.21
2019-06-01T15:47:48.889Z,101475.70
2019-06-01T15:50:20.322Z,101492.25
2019-06-01T15:52:52.984Z,101492.73
2019-06-01T15:55:24.546Z,101513.00
2019-06-01T15:57:56.555Z,101535.98
2019-06-01T16:00:28.129Z,101518.95
2019-06-01T16:03:01.040Z,101496.50
2019-06-01T16:05:32.817Z,101514.73
2019-06-01T16:08:05.569Z,101511.62
2019-06-01T16:10:37.329Z,101521.44
2019-06-01T16:13:08.778Z,101517.17
2019-06-01T16:15:40.296Z,101538.39
2019-06-01T16:18:12.175Z,101571.34
2019-06-01T16:20:43.651Z,101567.77
2019-06-01T16:23:16.743Z,101577.39
2019-06-01T16:26:01.216Z,101606.59
2019-06-01T16:28:22.494Z,101595.44
2019-06-01T16:30:54.353Z,101596.30
2019-06-01T16:33:25.956Z,101595.13
2019-06-01T16:35:58.889Z,101617.58
2019-06-01T16:38:31.941Z,101623.55
2019-06-01T16:41:05.553Z,101620.39
2019-06-01T16:43:38.654Z,101615.69
2019-06-01T16:46:10.637Z,101628.68
2019-06-01T16:48:42.081Z,101638.98
2019-06-01T16:51:13.603Z,101636.58
2019-06-01T16:53:45.113Z,101629.20
2019-06-01T16:56:16.450Z,101641.84
2019-06-01T16:58:48.076Z,101645.47
2019-06-01T17:01:19.444Z,101654.81
2019-06-01T17:03:52.018Z,101652.82
2019-06-01T17:06:24.296Z,101672.88
2019-06-01T17:08:56.776Z,101679.80
2019-06-01T17:11:29.543Z,101677.58
2019-06-01T17:14:01.267Z,101679.17
2019-06-01T17:16:33.012Z,101697.23
2019-06-01T17:19:05.209Z,101701.03
2019-06-01T17:21:36.743Z,101708.61
2019-06-01T17:24:08.322Z,101715.81
2019-06-01T17:26:39.972Z,101720.58
2019-06-01T17:29:11.371Z,101724.35
2019-06-01T17:31:54.093Z,101716.41
2019-06-01T17:34:15.882Z,101723.64
2019-06-01T17:36:47.731Z,101722.25
2019-06-01T17:39:19.795Z,101731.55
2019-06-01T17:41:51.262Z,101732.22
2019-06-01T17:44:22.893Z,101724.83
2019-06-01T17:46:54.392Z,101727.86
2019-06-01T17:49:26.952Z,101736.16
2019-06-01T17:51:58.318Z,101733.08
2019-06-01T17:54:29.872Z,101726.34
2019-06-01T17:57:03.095Z,101727.64
2019-06-01T17:59:34.674Z,101731.05
2019-06-01T18:02:06.229Z,101727.27
2019-06-01T18:04:37.699Z,101726.20
2019-06-01T18:07:09.991Z,101728.90
2019-06-01T18:09:41.703Z,101724.03
2019-06-01T18:12:14.077Z,101718.49
2019-06-01T18:14:45.923Z,101724.92
2019-06-01T18:17:17.693Z,101728.58
2019-06-01T18:19:49.630Z,101735.42
2019-06-01T18:22:23.374Z,101744.56
2019-06-01T18:24:54.880Z,101742.12
2019-06-01T18:27:26.364Z,101742.86
2019-06-01T18:29:57.886Z,101737.55
2019-06-01T18:32:29.270Z,101728.53
2019-06-01T18:35:00.786Z,101732.29
2019-06-01T18:37:34.916Z,101740.38
2019-06-01T18:40:07.710Z,101737.63
2019-06-01T18:42:43.706Z,101740.55
2019-06-01T18:45:15.721Z,101740.48
2019-06-01T18:47:48.022Z,101739.02
2019-06-01T18:50:19.951Z,101741.26
2019-06-01T18:52:51.544Z,101734.36
2019-06-01T18:55:27.211Z,101733.59
2019-06-01T18:57:59.736Z,101744.38
2019-06-01T19:00:31.275Z,101745.45
2019-06-01T19:03:02.753Z,101733.02
2019-06-01T19:05:34.190Z,101738.09
2019-06-01T19:08:07.024Z,101737.09
2019-06-01T19:10:38.695Z,101744.38
2019-06-01T19:13:10.173Z,101745.45
2019-06-01T19:15:41.981Z,101745.45
2019-06-01T19:18:14.606Z,101744.19
2019-06-01T19:20:50.217Z,101743.80
2019-06-01T19:23:22.968Z,101742.25
2019-06-01T19:25:55.177Z,101749.13
2019-06-01T19:28:26.658Z,101744.19
2019-06-01T19:30:58.095Z,101749.36
2019-06-01T19:33:29.544Z,101747.14
2019-06-01T19:36:01.513Z,101751.38
2019-06-01T19:38:34.351Z,101750.02
2019-06-01T19:41:07.404Z,101754.08
2019-06-01T19:43:39.003Z,101757.19
2019-06-01T19:46:10.318Z,101757.94
2019-06-01T19:48:41.710Z,101759.00
2019-06-01T19:51:13.092Z,101758.57
2019-06-01T19:53:44.732Z,101750.73
2019-06-01T19:56:17.055Z,101748.00
2019-06-01T19:58:49.642Z,101743.16
2019-06-01T20:01:23.814Z,101742.16
2019-06-01T20:03:55.258Z,101743.09
2019-06-01T20:06:26.658Z,101743.80
2019-06-01T20:09:00.333Z,101738.91
2019-06-01T20:11:31.995Z,101739.80
2019-06-01T20:14:03.420Z,101732.40
2019-06-01T20:16:34.883Z,101737.32
2019-06-01T20:19:06.318Z,101741.86
2019-06-01T20:21:37.809Z,101731.95
2019-06-01T20:24:09.302Z,101730.53
2019-06-01T20:26:48.765Z,101736.11
2019-06-01T20:29:14.040Z,101730.61
2019-06-01T20:31:46.539Z,101731.10
2019-06-01T20:34:18.083Z,101731.01
2019-06-01T20:36:49.625Z,101729.53
2019-06-01T20:39:22.331Z,101727.55
2019-06-01T20:41:54.058Z,101730.08
2019-06-01T20:44:25.616Z,101725.42
2019-06-01T20:46:57.254Z,101723.23
2019-06-01T20:49:28.854Z,101719.05
2019-06-01T20:52:01.893Z,101715.84
2019-06-01T20:54:33.362Z,101717.62
2019-06-01T20:57:05.840Z,101718.97
2019-06-01T20:59:37.209Z,101706.06
2019-06-01T21:02:08.710Z,101711.42
2019-06-01T21:04:40.202Z,101713.88
2019-06-01T21:07:11.955Z,101720.96
2019-06-01T21:09:43.733Z,101721.05
2019-06-01T21:12:18.340Z,101721.59
2019-06-01T21:14:49.959Z,101732.23
2019-06-01T21:17:22.675Z,101723.44
2019-06-01T21:19:54.407Z,101726.05
2019-06-01T21:22:26.437Z,101720.59
2019-06-01T21:24:57.874Z,101719.89
2019-06-01T21:27:29.393Z,101726.48
2019-06-01T21:30:01.787Z,101733.32
2019-06-01T21:32:33.331Z,101724.84
2019-06-01T21:35:07.857Z,101715.70
2019-06-01T21:37:42.087Z,101709.55
2019-06-01T21:40:13.754Z,101706.87
2019-06-01T21:43:00.363Z,101709.98
2019-06-01T21:45:19.685Z,101709.00
2019-06-01T21:47:51.265Z,101707.30
2019-06-01T21:50:25.972Z,101708.17
2019-06-01T21:52:58.589Z,101714.95
2019-06-01T21:55:30.207Z,101718.30
2019-06-01T21:58:01.906Z,101704.94
2019-06-01T22:00:37.272Z,101696.03
2019-06-01T22:03:09.550Z,101691.75
2019-06-01T22:05:40.994Z,101696.00
2019-06-01T22:08:12.476Z,101696.22
2019-06-01T22:10:45.426Z,101697.42
2019-06-01T22:13:21.971Z,101694.87
2019-06-01T22:15:51.641Z,101678.45
2019-06-01T22:18:23.787Z,101676.75
2019-06-01T22:20:55.260Z,101674.78
2019-06-01T22:23:28.041Z,101678.50
2019-06-01T22:25:59.686Z,101675.64
2019-06-01T22:28:31.973Z,101678.83
2019-06-01T22:31:03.563Z,101663.86
2019-06-01T22:33:35.100Z,101657.20
2019-06-01T22:36:06.582Z,101641.97
2019-06-01T22:38:38.465Z,101625.18
2019-06-01T22:41:10.620Z,101642.42
2019-06-01T22:43:46.422Z,101633.06
2019-06-01T22:47:54.557Z,101637.97
2019-06-01T22:50:27.039Z,101653.17
2019-06-01T22:52:58.432Z,101654.69
2019-06-01T22:55:29.807Z,101664.52
2019-06-01T22:58:01.696Z,101676.59
2019-06-01T23:00:33.184Z,101681.22
2019-06-01T23:03:05.854Z,101681.52
2019-06-01T23:05:37.320Z,101687.80
2019-06-01T23:08:08.654Z,101703.04
2019-06-01T23:10:41.259Z,101708.13
2019-06-01T23:13:13.143Z,101704.25
2019-06-01T23:15:45.043Z,101719.62
2019-06-01T23:18:16.422Z,101727.14
2019-06-01T23:20:48.637Z,101718.36
2019-06-01T23:23:20.032Z,101710.19
2019-06-01T23:25:51.374Z,101699.34
2019-06-01T23:28:24.040Z,101693.43
2019-06-01T23:30:56.821Z,101692.41
2019-06-01T23:33:28.858Z,101676.36
2019-06-01T23:36:00.463Z,101679.24
2019-06-01T23:38:32.790Z,101671.99
2019-06-01T23:41:04.481Z,101669.20
2019-06-01T23:43:35.922Z,101669.22
2019-06-01T23:46:07.298Z,101668.91
2019-06-01T23:48:39.220Z,101658.18
2019-06-01T23:51:12.593Z,101660.39
2019-06-01T23:53:44.064Z,101654.92
2019-06-01T23:56:15.485Z,101655.41
2019-06-01T23:58:46.867Z,101651.20
